KBGM METAR

Date/Time (Local) Flight Rules Wind Clouds Visibility Temperature Dewpoint Altimeter Remarks
08/24 7:53 am VFR 350° @ 5 kts CLR 10.0sm 12.8°C / 53.6°F 8.9°C / 46.4°F 30.250984
08/24 6:53 am SPECI VFR 20° @ 4 kts CLR 10.0sm 11.1°C / 51.8°F 8.9°C / 46.4°F 30.221457
08/24 5:53 am VFR 360° @ 6 kts CLR 10.0sm 11.1°C / 51.8°F 8.9°C / 46.4°F 30.200787
08/24 4:53 am SPECI VFR 10° @ 6 kts FEW 6000 10.0sm 11.7°C / 51.8°F 9.4°C / 48.2°F 30.180119
08/24 3:53 am VFR 350° @ 6 kts SCT 4700 BKN 6500 10.0sm 12.2°C / 53.6°F 10.0°C / 50°F 30.180119
08/24 2:53 am VFR 350° @ 5 kts BKN 6500 10.0sm 13.3°C / 55.4°F 10.6°C / 50°F 30.171259
08/24 2:08 am VFR 330° @ 6 kts SCT 2600 BKN 3500 BKN 6000 10.0sm 12.8°C / 53.6°F 10.0°C / 50°F 30.171259
08/24 1:53 am MVFR 320° @ 5 kts BKN 2600 BKN 3600 OVC 6500 10.0sm 12.8°C / 53.6°F 10.0°C / 50°F 30.171259
08/24 12:53 am VFR 320° @ 3 kts CLR 10.0sm 13.3°C / 55.4°F 10.0°C / 50°F 30.171259
Show/Hide History...

BGM AFD

.AVIATION /12Z SATURDAY THROUGH WEDNESDAY/...
Mainly VFR conditions are expected through this TAF period. The
one exception will likely be at KELM, where MVFR and occasional
IFR visibilities are expected in valley fog late tonight/early
Sunday morning between 08Z and 12Z.

Winds during the day today will generally be northerly at 4-8
kts, then becoming light and variable tonight.

Outlook...

Sunday through Monday...VFR, except late night/early morning
fog likely at KELM.

Monday night and Tuesday...VFR expected.

Tuesday night and Wednesday...Restrictions possible in showers
and storms.

Nearby AWOS/ASOS

KBGM: Binghamton 607-729-8335 128.15
KCZG: Tri-Cities 607-785-2926 119.075
N23: Sidney 607-561-2333 118.275
KOIC: Norwich 607-336-8583 119.025
N03: Cortland 607-753-9784 132.225
KAVP: Scranton 570-655-0748 111.6 (VOR)

KBGM TAF

Date/Time (Local) Flight Rules Wind Clouds Visibility (sm)  
08/24 8:00 am thru 08/24 10:00 am VFR 340° @ 4 kts SKC >= 6
08/24 10:00 am thru 08/24 10:00 pm FM VFR 30° @ 7 kts SCT 5000 >= 6
08/24 10:00 pm thru 08/25 8:00 am FM VFR Variable @ 4 kts FEW 10000 >= 6

KELM METAR

Date/Time (Local) Flight Rules Wind Clouds Visibility Temperature Dewpoint Altimeter Remarks
08/24 7:53 am VFR Calm FEW 300 FEW 6500 10.0sm 11.7°C / 51.8°F 11.1°C / 51.8°F 30.259842
08/24 7:19 am VFR 250° @ 5 kts FEW 300 10.0sm 10.6°C / 50°F 10.0°C / 50°F 30.250984
08/24 6:53 am SPECI VFR 230° @ 4 kts CLR 10.0sm 8.9°C / 46.4°F 8.9°C / 46.4°F 30.239174
08/24 5:53 am VFR Calm CLR 9.0sm 8.3°C / 46.4°F 8.3°C / 46.4°F 30.209646
08/24 4:53 am SPECI VFR 230° @ 4 kts CLR 10.0sm 10.6°C / 50°F 10.0°C / 50°F 30.200787
08/24 3:53 am VFR Calm SCT 7000 10.0sm 11.1°C / 51.8°F 10.6°C / 50°F 30.188976
08/24 2:53 am VFR 260° @ 3 kts BKN 7500 10.0sm 11.1°C / 51.8°F 10.6°C / 50°F 30.188976
08/24 1:53 am VFR 250° @ 3 kts CLR 10.0sm 11.1°C / 51.8°F 10.6°C / 50°F 30.180119
08/24 12:53 am VFR 240° @ 3 kts CLR 10.0sm 10.6°C / 50°F 9.4°C / 48.2°F 30.180119
Show/Hide History...

KITH METAR

Date/Time (Local) Flight Rules Wind Clouds Visibility Temperature Dewpoint Altimeter Remarks
08/24 7:56 am VFR Calm BKN 5000 10.0sm 11.7°C / 51.8°F 11.7°C / 51.8°F 30.268702
08/24 6:56 am VFR 70° @ 3 kts CLR 8.0sm 8.3°C / 46.4°F 8.3°C / 46.4°F 30.250984
08/24 6:31 am VFR Calm CLR 8.0sm 7.0°C / 44.6°F 7.0°C / 44.6°F 30.239174
08/24 6:27 am SPECI VFR Calm CLR 8.0sm 7.0°C / 44.6°F 7.0°C / 44.6°F 30.239174
08/24 6:20 am IFR 80° @ 3 kts CLR 1.75sm 7.0°C / 44.6°F 7.0°C / 44.6°F 30.230314 Mist
08/24 6:17 am LIFR 80° @ 3 kts CLR 0.75sm 7.0°C / 44.6°F 7.0°C / 44.6°F 30.230314 Mist
08/24 6:10 am SPECI IFR Calm CLR 1.0sm 8.0°C / 46.4°F 8.0°C / 46.4°F 30.230314 Mist
08/24 5:56 am VFR Calm FEW 6500 8.0sm 8.9°C / 46.4°F 8.9°C / 46.4°F 30.221457
08/24 4:56 am VFR Calm FEW 5500 10.0sm 8.9°C / 46.4°F 8.9°C / 46.4°F 30.209646
08/24 3:56 am VFR 80° @ 4 kts CLR 10.0sm 8.9°C / 46.4°F 8.9°C / 46.4°F 30.200787
08/24 2:56 am MVFR 90° @ 3 kts FEW 7000 5.0sm 8.9°C / 46.4°F 8.9°C / 46.4°F 30.200787 Mist
08/24 1:56 am VFR 80° @ 3 kts CLR 10.0sm 9.4°C / 48.2°F 9.4°C / 48.2°F 30.188976
08/24 12:56 am VFR Calm CLR 10.0sm 10.0°C / 50°F 10.0°C / 50°F 30.180119
Show/Hide History...

KAVP METAR

Date/Time (Local) Flight Rules Wind Clouds Visibility Temperature Dewpoint Altimeter Remarks
08/24 7:54 am VFR Calm CLR 10.0sm 13.9°C / 55.4°F 11.7°C / 51.8°F 30.239174
08/24 6:54 am SPECI VFR 100° @ 3 kts CLR 10.0sm 11.1°C / 51.8°F 10.0°C / 50°F 30.221457
08/24 5:54 am VFR 110° @ 3 kts CLR 10.0sm 11.7°C / 51.8°F 10.6°C / 50°F 30.188976
08/24 4:54 am SPECI VFR 120° @ 3 kts CLR 10.0sm 11.1°C / 51.8°F 10.6°C / 50°F 30.171259
08/24 3:54 am VFR 120° @ 3 kts CLR 10.0sm 11.7°C / 51.8°F 10.6°C / 50°F 30.159449
08/24 2:54 am VFR 130° @ 3 kts CLR 10.0sm 12.2°C / 53.6°F 11.1°C / 51.8°F 30.159449
08/24 1:54 am VFR 130° @ 3 kts CLR 10.0sm 12.2°C / 53.6°F 11.1°C / 51.8°F 30.159449
08/24 12:54 am VFR Calm CLR 10.0sm 13.3°C / 55.4°F 11.7°C / 51.8°F 30.159449
Show/Hide History...

KSYR METAR

Date/Time (Local) Flight Rules Wind Clouds Visibility Temperature Dewpoint Altimeter Remarks
08/24 7:54 am VFR Calm FEW 4000 FEW 20000 10.0sm 15.0°C / 59°F 10.6°C / 50°F 30.259842
08/24 6:54 am VFR Calm FEW 4000 FEW 15000 SCT 25000 10.0sm 11.7°C / 51.8°F 9.4°C / 48.2°F 30.239174
08/24 5:54 am VFR 300° @ 4 kts FEW 8000 FEW 15000 SCT 25000 10.0sm 11.7°C / 51.8°F 9.4°C / 48.2°F 30.221457
08/24 4:54 am VFR 320° @ 3 kts FEW 8000 SCT 15000 SCT 25000 10.0sm 12.2°C / 53.6°F 10.0°C / 50°F 30.200787
08/24 3:54 am VFR Calm FEW 8000 SCT 15000 SCT 25000 10.0sm 12.8°C / 53.6°F 10.0°C / 50°F 30.188976
08/24 2:54 am VFR Calm FEW 8000 SCT 15000 10.0sm 12.8°C / 53.6°F 10.6°C / 50°F 30.188976
08/24 1:54 am VFR 340° @ 4 kts SCT 8000 BKN 15000 10.0sm 15.0°C / 59°F 10.6°C / 50°F 30.180119
08/24 12:54 am VFR 10° @ 3 kts FEW 6000 BKN 7500 BKN 15000 10.0sm 16.7°C / 60.8°F 10.0°C / 50°F 30.171259
Show/Hide History...